Angora, Nebraska
Current Conditions -  °F | °C
As of 2:53 AM on Monday 20 Oct 2014 (Local Time) from KAIA Reporting Station
Clear Clear  
Wind Chill: 35°   Ceiling: Unl
Heat Index: 35°   Visibility: 10mi
Dew Point: 32°   Wind: 3mph
Humidity: 89%   Direction: 260°W
Pressure: 30.12"   Gusts: NA
Location:  41.85°N, 103.13°W
Report Text: KAIA 200853Z AUTO 26003KT 10SM CLR 02/00 A3012 RMK AO2 SLP183 T00170000 50001 $
Loading
Personal Weather Stations






























Interactive Weather Map
Tropical Storm Tracking
New forecast layout! Learn more

10-Day Weather Forecast

Advertisements
Track Severe Weather on mobile